Time;durP1;ratioP1;P1;durP2;ratioP2;P2;SDS_P1;SDS_P2;PMS_P1;PMS_P2;Temp;Humidity;BMP_temperature;BMP_pressure;BME280_temperature;BME280_humidity;BME280_pressure;Samples;Min_cycle;Max_cycle;Signal;HPM_P1;HPM_P2
2021/11/12 00:13:19;;;;;;;51.60;44.05;;;9.10;99.90;;;;;;5045643;28;20123;-47
2021/11/12 00:15:48;;;;;;;51.53;43.72;;;9.00;99.90;;;;;;5047118;28;20067;-49
2021/11/12 00:18:16;;;;;;;55.60;45.22;;;9.00;99.90;;;;;;5048010;28;20044;-48
2021/11/12 00:20:43;;;;;;;58.33;44.22;;;9.00;99.90;;;;;;5047135;28;20049;-51
2021/11/12 00:23:10;;;;;;;51.53;42.22;;;9.00;99.90;;;;;;5014198;28;20071;-53
2021/11/12 00:25:36;;;;;;;55.05;45.15;;;9.10;99.90;;;;;;5047459;28;20074;-52
2021/11/12 00:28:02;;;;;;;57.10;44.15;;;9.00;99.90;;;;;;5047771;28;20492;-52
2021/11/12 00:35:51;;;;;;;53.55;42.05;;;9.00;99.90;;;;;;5047823;28;20037;-50
2021/11/12 00:38:20;;;;;;;52.40;43.00;;;8.90;99.90;;;;;;5047301;28;20096;-58
2021/11/12 00:43:35;;;;;;;59.03;45.15;;;9.00;99.90;;;;;;5049630;28;20052;-58
2021/11/12 00:48:38;;;;;;;51.28;43.53;;;8.90;99.90;;;;;;5044500;28;20051;-58
2021/11/12 00:51:23;;;;;;;56.97;44.40;;;8.90;99.90;;;;;;5049205;28;20048;-51
2021/11/12 00:53:53;;;;;;;52.15;41.63;;;8.90;99.90;;;;;;5048444;28;20049;-58
2021/11/12 00:56:23;;;;;;;55.25;44.80;;;8.90;99.90;;;;;;5044822;28;20053;-58
2021/11/12 00:58:50;;;;;;;53.15;42.10;;;8.90;99.90;;;;;;5049142;28;20127;-49
2021/11/12 01:01:17;;;;;;;52.13;43.75;;;8.90;99.90;;;;;;5046556;28;20052;-48
2021/11/12 01:03:43;;;;;;;56.67;47.40;;;8.90;99.90;;;;;;5047080;28;20037;-51
2021/11/12 01:06:09;;;;;;;61.08;45.17;;;8.90;99.90;;;;;;5048404;28;20049;-51
2021/11/12 01:08:36;;;;;;;54.05;44.60;;;8.90;99.90;;;;;;5048193;28;20076;-51
2021/11/12 01:11:03;;;;;;;49.92;43.40;;;8.90;99.90;;;;;;5048382;28;20049;-51
2021/11/12 01:13:30;;;;;;;59.00;45.35;;;8.90;99.90;;;;;;5046851;28;20072;-50
2021/11/12 01:15:56;;;;;;;58.45;45.83;;;8.90;99.90;;;;;;5050500;28;20041;-58
2021/11/12 01:18:23;;;;;;;51.85;43.17;;;8.90;99.90;;;;;;5053278;28;20114;-57
2021/11/12 01:20:50;;;;;;;51.03;43.20;;;8.90;99.90;;;;;;5035179;28;20048;-57
2021/11/12 01:23:17;;;;;;;50.95;41.45;;;8.90;99.90;;;;;;5049191;28;20168;-57
2021/11/12 01:25:44;;;;;;;52.33;43.97;;;8.90;99.90;;;;;;5052549;28;20040;-58
2021/11/12 01:28:10;;;;;;;55.90;45.13;;;8.90;99.90;;;;;;5052900;28;20037;-58
2021/11/12 01:30:36;;;;;;;54.00;44.33;;;8.90;99.90;;;;;;5053035;28;20483;-58
2021/11/12 01:33:04;;;;;;;54.22;44.75;;;8.90;99.90;;;;;;5052743;28;20076;-60
2021/11/12 01:35:31;;;;;;;58.15;46.95;;;8.90;99.90;;;;;;5052426;28;20071;-58
2021/11/12 01:37:57;;;;;;;52.30;44.13;;;8.90;99.90;;;;;;5052815;28;20076;-58
2021/11/12 01:40:26;;;;;;;54.97;42.58;;;8.90;99.90;;;;;;5050764;28;20064;-57
2021/11/12 01:43:06;;;;;;;55.42;44.15;;;8.90;99.90;;;;;;5052602;28;20053;-58
2021/11/12 01:45:59;;;;;;;56.25;44.80;;;8.90;99.90;;;;;;5052531;28;20053;-58
2021/11/12 01:53:56;;;;;;;54.13;43.42;;;8.80;99.90;;;;;;5052733;28;20041;-58
2021/11/12 02:01:36;;;;;;;54.42;43.33;;;8.80;99.90;;;;;;5047510;28;20072;-58
2021/11/12 02:04:03;;;;;;;58.22;43.95;;;8.80;99.90;;;;;;5051958;28;20061;-50
2021/11/12 02:06:31;;;;;;;55.72;44.33;;;8.80;99.90;;;;;;5046187;28;20041;-48
2021/11/12 02:08:58;;;;;;;53.17;44.60;;;8.80;99.90;;;;;;5050890;28;20049;-47
2021/11/12 02:11:24;;;;;;;56.40;45.28;;;8.80;99.90;;;;;;5046977;28;20044;-50
2021/11/12 02:13:50;;;;;;;55.17;42.30;;;8.80;99.90;;;;;;5049164;28;20041;-52
2021/11/12 02:16:24;;;;;;;57.85;45.92;;;8.80;99.90;;;;;;5050261;28;20045;-48
2021/11/12 02:18:51;;;;;;;59.90;44.83;;;8.80;99.90;;;;;;5049415;28;20060;-48
2021/11/12 02:21:26;;;;;;;58.40;43.58;;;8.80;99.90;;;;;;5050516;28;20045;-50
2021/11/12 02:24:08;;;;;;;57.53;45.72;;;8.80;99.90;;;;;;5050381;28;20094;-48
2021/11/12 02:26:39;;;;;;;53.13;43.67;;;8.80;99.90;;;;;;5048993;28;20119;-59
2021/11/12 02:29:07;;;;;;;57.47;46.65;;;8.80;99.90;;;;;;5048680;28;20037;-58
2021/11/12 02:31:34;;;;;;;56.90;44.97;;;8.80;99.90;;;;;;5047410;28;20155;-58
2021/11/12 02:34:05;;;;;;;54.67;43.83;;;8.70;99.90;;;;;;5051813;28;20071;-57
2021/11/12 02:36:32;;;;;;;55.35;43.22;;;8.70;99.90;;;;;;5051525;28;20041;-58
2021/11/12 02:38:59;;;;;;;58.70;45.05;;;8.70;99.90;;;;;;5052169;28;20377;-58
2021/11/12 02:41:25;;;;;;;52.63;43.75;;;8.70;99.90;;;;;;5051639;28;20080;-58
2021/11/12 02:43:51;;;;;;;60.03;43.13;;;8.70;99.90;;;;;;5057049;28;20559;-58
2021/11/12 02:46:21;;;;;;;61.70;45.80;;;8.70;99.90;;;;;;5051623;28;20036;-58
2021/11/12 02:48:48;;;;;;;54.55;43.25;;;8.70;99.90;;;;;;5049652;28;20044;-58
2021/11/12 02:51:20;;;;;;;55.88;44.47;;;8.70;99.90;;;;;;5051635;28;20106;-58
2021/11/12 02:53:47;;;;;;;;;;;8.70;99.90;;;;;;5046604;28;20120;-57
2021/11/12 02:56:34;;;;;;;56.17;43.40;;;8.70;99.90;;;;;;5051052;28;19922;-58
2021/11/12 02:59:06;;;;;;;53.88;42.92;;;8.70;99.90;;;;;;5049609;28;20084;-58
2021/11/12 03:01:37;;;;;;;55.75;43.47;;;8.70;99.90;;;;;;5051754;28;20044;-58
2021/11/12 03:04:05;;;;;;;55.17;44.95;;;8.70;99.90;;;;;;5050500;28;20048;-58
2021/11/12 03:06:33;;;;;;;57.95;44.40;;;8.70;99.90;;;;;;5033580;28;20111;-58
2021/11/12 03:09:05;;;;;;;56.55;44.45;;;8.70;99.90;;;;;;5050695;28;20045;-57
2021/11/12 03:11:36;;;;;;;58.20;44.83;;;8.70;99.90;;;;;;5051976;28;20044;-58
2021/11/12 03:14:03;;;;;;;58.83;45.35;;;8.70;99.90;;;;;;5051944;28;20084;-58
2021/11/12 03:16:30;;;;;;;55.55;45.45;;;8.70;99.90;;;;;;5051372;28;20048;-58
2021/11/12 03:18:59;;;;;;;55.67;43.10;;;8.60;99.90;;;;;;5049421;28;20080;-51
2021/11/12 03:21:26;;;;;;;63.50;46.00;;;8.70;99.90;;;;;;5012416;28;20057;-48
2021/11/12 03:26:29;;;;;;;55.63;45.33;;;8.60;99.90;;;;;;5030484;28;20056;-52
2021/11/12 03:46:59;;;;;;;58.22;46.10;;;8.60;99.90;;;;;;5029681;28;20053;-59
2021/11/12 04:05:15;;;;;;;59.63;48.13;;;8.60;99.90;;;;;;4987696;28;20472;-50
2021/11/12 04:18:50;;;;;;;57.53;46.33;;;8.50;99.90;;;;;;5048695;28;20060;-48
2021/11/12 05:33:30;;;;;;;66.60;48.25;;;8.40;99.90;;;;;;5011384;28;20042;-58
2021/11/12 05:56:39;;;;;;;68.47;48.35;;;8.40;99.90;;;;;;5030388;28;20041;-57
2021/11/12 05:59:05;;;;;;;63.72;47.45;;;8.40;99.90;;;;;;5014376;28;20128;-57
2021/11/12 06:01:31;;;;;;;62.75;48.45;;;8.40;99.90;;;;;;5029458;28;20258;-57
2021/11/12 06:03:58;;;;;;;66.72;46.83;;;8.40;99.90;;;;;;5012842;28;20080;-57
2021/11/12 06:06:24;;;;;;;61.47;46.45;;;8.40;99.90;;;;;;5013836;28;20076;-57
2021/11/12 06:08:50;;;;;;;57.40;42.83;;;8.40;99.90;;;;;;5029929;28;20045;-57
2021/11/12 06:11:16;;;;;;;66.30;46.88;;;8.40;99.90;;;;;;5030238;28;20048;-57
2021/11/12 06:13:42;;;;;;;59.35;43.08;;;8.40;99.90;;;;;;4997536;28;20052;-57
2021/11/12 06:16:10;;;;;;;59.67;43.85;;;8.40;99.90;;;;;;5030155;28;20063;-58
2021/11/12 06:18:36;;;;;;;56.75;41.63;;;8.40;99.90;;;;;;5029382;28;20539;-57
2021/11/12 06:21:03;;;;;;;60.90;43.92;;;8.30;99.90;;;;;;5028943;28;20091;-57
2021/11/12 06:23:29;;;;;;;54.80;40.60;;;8.40;99.90;;;;;;5028724;28;20420;-46
2021/11/12 06:25:55;;;;;;;58.92;39.95;;;8.30;99.90;;;;;;5011398;28;20037;-51
2021/11/12 06:28:21;;;;;;;51.67;40.15;;;8.40;99.90;;;;;;5027479;28;20053;-49
2021/11/12 06:30:49;;;;;;;56.97;39.90;;;8.40;99.90;;;;;;5042800;28;20045;-50
2021/11/12 06:33:15;;;;;;;60.42;40.70;;;8.40;99.90;;;;;;5032407;28;20507;-47
2021/11/12 06:35:41;;;;;;;54.90;40.17;;;8.30;99.90;;;;;;5050290;28;20492;-48
2021/11/12 06:38:09;;;;;;;53.05;38.85;;;8.30;99.90;;;;;;5048970;28;20408;-58
2021/11/12 06:40:36;;;;;;;56.72;40.88;;;8.30;99.90;;;;;;5049979;28;20044;-58
2021/11/12 06:51:07;;;;;;;60.28;39.72;;;8.30;99.90;;;;;;5056226;28;20045;-47
2021/11/12 06:53:33;;;;;;;55.90;39.42;;;8.30;99.90;;;;;;5049578;28;20033;-46
2021/11/12 06:56:02;;;;;;;57.20;38.97;;;8.30;99.90;;;;;;5049519;28;20133;-50
2021/11/12 06:58:29;;;;;;;54.08;38.22;;;8.30;99.90;;;;;;5050874;28;20488;-48
2021/11/12 07:00:56;;;;;;;57.30;39.53;;;8.30;99.90;;;;;;5049084;28;20044;-51
2021/11/12 07:03:23;;;;;;;55.50;39.13;;;8.30;99.90;;;;;;5064343;28;20103;-52
2021/11/12 07:05:50;;;;;;;59.28;39.67;;;8.30;99.90;;;;;;5051093;28;20063;-50
2021/11/12 07:08:16;;;;;;;54.55;38.83;;;8.30;99.90;;;;;;5047274;28;20080;-50
2021/11/12 07:10:43;;;;;;;51.60;37.72;;;8.30;99.90;;;;;;5031141;28;20167;-49
2021/11/12 07:13:09;;;;;;;48.60;37.80;;;8.30;99.90;;;;;;5031151;28;20056;-48
2021/11/12 07:15:35;;;;;;;50.17;34.88;;;8.30;99.90;;;;;;5030657;28;20053;-49
2021/11/12 07:18:01;;;;;;;49.47;34.63;;;8.30;99.90;;;;;;5030743;28;20064;-51
2021/11/12 07:20:28;;;;;;;53.67;37.67;;;8.30;99.90;;;;;;5013467;28;20049;-47
2021/11/12 07:22:54;;;;;;;44.55;34.90;;;8.30;99.90;;;;;;5044907;28;20071;-51
2021/11/12 07:25:21;;;;;;;46.85;34.33;;;8.30;99.90;;;;;;5065888;28;20048;-51
2021/11/12 07:27:48;;;;;;;46.50;35.20;;;8.30;99.90;;;;;;5051151;28;20056;-58
2021/11/12 07:30:18;;;;;;;42.85;33.47;;;8.30;99.90;;;;;;5049873;28;20499;-60
2021/11/12 07:32:45;;;;;;;46.63;34.55;;;8.30;99.90;;;;;;5051165;28;20055;-55
2021/11/12 07:35:13;;;;;;;46.85;33.45;;;8.40;99.90;;;;;;5050824;28;20140;-62
2021/11/12 07:37:39;;;;;;;45.33;33.60;;;8.40;99.90;;;;;;5029603;28;20045;-62
2021/11/12 07:40:09;;;;;;;44.60;32.88;;;8.40;99.90;;;;;;5029756;28;20053;-58
2021/11/12 07:47:59;;;;;;;44.92;31.90;;;8.50;99.90;;;;;;5008337;28;20042;-49
2021/11/12 07:50:25;;;;;;;44.30;31.42;;;8.50;99.90;;;;;;4991798;28;20038;-48
2021/11/12 07:52:52;;;;;;;40.92;29.10;;;8.50;99.90;;;;;;5007780;28;20416;-54
2021/11/12 07:55:18;;;;;;;40.25;30.23;;;8.50;99.90;;;;;;5008220;28;20098;-54
2021/11/12 07:57:44;;;;;;;40.28;31.10;;;8.50;99.90;;;;;;5008041;28;20053;-56
2021/11/12 08:00:10;;;;;;;37.25;29.80;;;8.40;99.90;;;;;;4991506;28;20053;-52
2021/11/12 08:02:39;;;;;;;42.47;30.85;;;8.50;99.90;;;;;;4991683;28;20050;-53
2021/11/12 08:05:22;;;;;;;37.70;29.08;;;8.50;99.90;;;;;;5008049;28;20049;-51
2021/11/12 08:07:50;;;;;;;38.65;29.20;;;8.50;99.90;;;;;;4992217;28;20052;-53
2021/11/12 08:10:19;;;;;;;42.58;32.10;;;8.50;99.90;;;;;;5007172;28;20053;-52
2021/11/12 08:13:00;;;;;;;40.70;29.73;;;8.50;99.90;;;;;;5007900;28;20050;-53
2021/11/12 08:19:03;;;;;;;;;;;8.40;99.90;;;;;;5007661;28;20480;-53
2021/11/12 08:21:02;;;;;;;38.97;29.95;;;8.50;99.90;;;;;;4986579;28;19963;-54
2021/11/12 08:23:50;;;;;;;35.22;29.17;;;8.90;99.90;;;;;;4993621;28;20050;-48
2021/11/12 08:26:31;;;;;;;37.35;28.80;;;9.60;99.90;;;;;;5032115;28;20456;-47
2021/11/12 08:37:22;;;;;;;30.80;25.52;;;12.00;99.90;;;;;;5032772;28;20119;-57
2021/11/12 08:42:23;;;;;;;34.63;26.23;;;11.20;99.90;;;;;;5014609;28;20091;-48
2021/11/12 08:44:57;;;;;;;29.52;24.98;;;11.30;99.90;;;;;;5030202;28;20145;-48
2021/11/12 08:47:30;;;;;;;33.75;26.85;;;11.40;99.90;;;;;;4998655;28;20048;-49
2021/11/12 08:49:57;;;;;;;35.60;26.63;;;11.60;99.90;;;;;;5030614;28;20057;-48
2021/11/12 08:52:25;;;;;;;32.67;26.35;;;12.40;99.90;;;;;;5030236;28;20049;-52
2021/11/12 08:54:51;;;;;;;30.08;25.83;;;12.80;99.90;;;;;;4996894;28;20049;-50
2021/11/12 08:57:19;;;;;;;30.85;26.38;;;13.10;99.90;;;;;;5030716;28;20053;-48
2021/11/12 08:59:47;;;;;;;33.90;25.77;;;13.70;99.90;;;;;;5015035;28;20053;-57
2021/11/12 09:02:19;;;;;;;31.88;24.45;;;14.00;99.90;;;;;;5016233;28;20041;-58
2021/11/12 09:04:47;;;;;;;29.73;24.38;;;13.90;99.90;;;;;;5032572;28;20053;-57
2021/11/12 09:07:14;;;;;;;28.02;23.80;;;13.80;99.90;;;;;;5032846;28;20049;-58
2021/11/12 09:09:41;;;;;;;27.90;24.20;;;13.90;99.90;;;;;;5032692;28;20049;-58
2021/11/12 09:12:10;;;;;;;27.45;23.75;;;14.00;99.90;;;;;;5033457;28;20104;-58
2021/11/12 09:14:43;;;;;;;26.67;23.20;;;14.30;99.90;;;;;;5033759;28;20077;-58
2021/11/12 09:17:09;;;;;;;28.55;23.45;;;14.60;99.90;;;;;;5033812;28;20037;-58
2021/11/12 09:19:44;;;;;;;28.35;22.75;;;14.80;99.90;;;;;;5033884;28;20045;-57
2021/11/12 09:22:13;;;;;;;26.50;21.38;;;14.80;99.90;;;;;;5033548;28;20084;-58
2021/11/12 09:24:39;;;;;;;26.27;22.20;;;14.80;99.90;;;;;;5033221;28;20046;-58
2021/11/12 09:27:05;;;;;;;27.30;22.05;;;15.30;99.90;;;;;;5034764;28;20519;-58
2021/11/12 09:29:31;;;;;;;28.02;23.25;;;15.20;99.90;;;;;;5034750;28;20100;-58
2021/11/12 09:31:58;;;;;;;25.73;21.73;;;15.80;99.90;;;;;;5033063;28;20041;-57
2021/11/12 09:34:24;;;;;;;28.00;22.65;;;16.00;99.90;;;;;;5032825;28;20455;-58
2021/11/12 09:36:50;;;;;;;24.23;21.60;;;16.50;99.90;;;;;;5034308;28;20046;-58
2021/11/12 09:39:16;;;;;;;24.20;21.60;;;16.70;99.90;;;;;;5032987;28;20056;-58
2021/11/12 09:41:46;;;;;;;25.45;21.92;;;16.30;99.90;;;;;;5032946;28;20052;-59
2021/11/12 09:44:12;;;;;;;27.65;21.00;;;16.30;97.70;;;;;;5034341;28;20512;-58
2021/11/12 09:46:38;;;;;;;25.08;21.67;;;16.70;99.90;;;;;;5034410;28;20042;-57
2021/11/12 09:49:05;;;;;;;24.73;20.85;;;16.70;99.90;;;;;;5015206;28;20056;-52
2021/11/12 09:51:32;;;;;;;25.98;20.75;;;16.50;99.90;;;;;;5033818;28;20052;-52
2021/11/12 09:53:58;;;;;;;25.80;21.60;;;16.90;99.90;;;;;;5052523;28;20052;-58
2021/11/12 09:56:24;;;;;;;23.98;21.33;;;16.80;99.90;;;;;;5053744;28;20045;-58
2021/11/12 09:58:51;;;;;;;22.55;18.88;;;17.00;99.80;;;;;;5052921;28;20056;-49
2021/11/12 10:01:26;;;;;;;23.52;18.45;;;16.50;96.10;;;;;;5052028;28;20556;-53
2021/11/12 10:03:52;;;;;;;22.35;18.50;;;16.70;94.60;;;;;;5051128;28;20088;-58
2021/11/12 10:06:21;;;;;;;21.02;17.60;;;16.90;96.80;;;;;;5053748;28;20519;-58
2021/11/12 10:08:48;;;;;;;21.55;18.40;;;16.50;95.80;;;;;;5051227;28;20037;-47
2021/11/12 10:11:32;;;;;;;22.17;17.85;;;16.70;96.40;;;;;;5053648;28;20380;-57
2021/11/12 10:14:00;;;;;;;20.55;17.05;;;16.80;94.00;;;;;;5052435;28;20049;-49
2021/11/12 10:16:35;;;;;;;19.27;16.38;;;17.00;95.30;;;;;;5050710;28;20492;-58
2021/11/12 10:19:03;;;;;;;19.30;14.93;;;17.40;93.20;;;;;;5052519;28;20045;-51
2021/11/12 10:21:32;;;;;;;21.13;16.13;;;16.80;84.20;;;;;;5051212;28;20045;-48
2021/11/12 10:24:02;;;;;;;19.33;16.95;;;16.90;92.40;;;;;;5049047;28;20052;-53
2021/11/12 10:26:30;;;;;;;17.63;15.63;;;17.30;87.50;;;;;;5039254;28;20049;-59
2021/11/12 10:29:01;;;;;;;16.80;15.00;;;16.90;88.70;;;;;;5030088;28;20037;-47
2021/11/12 10:31:27;;;;;;;16.20;13.27;;;17.10;82.50;;;;;;5046510;28;20268;-47
2021/11/12 10:33:54;;;;;;;16.83;14.40;;;17.00;83.10;;;;;;5031164;28;20057;-48
2021/11/12 10:36:20;;;;;;;14.35;12.85;;;17.20;79.80;;;;;;5032192;28;20057;-58
2021/11/12 10:38:49;;;;;;;16.05;12.73;;;17.40;78.70;;;;;;5030210;28;20041;-47
2021/11/12 10:41:19;;;;;;;15.20;12.00;;;17.30;75.80;;;;;;5013397;28;20093;-48
2021/11/12 10:43:46;;;;;;;15.95;13.82;;;17.20;75.60;;;;;;5043450;28;20098;-46
2021/11/12 10:46:12;;;;;;;14.45;12.75;;;17.50;77.10;;;;;;5050825;28;20063;-50
2021/11/12 10:48:39;;;;;;;19.38;14.23;;;17.40;76.70;;;;;;5049152;28;20040;-59
2021/11/12 10:51:22;;;;;;;15.75;13.38;;;17.80;77.00;;;;;;5052627;28;20549;-60
2021/11/12 10:53:51;;;;;;;16.08;14.18;;;17.80;68.50;;;;;;5052358;28;20045;-59
2021/11/12 10:56:21;;;;;;;15.82;13.93;;;18.30;72.70;;;;;;5051168;28;20064;-54
2021/11/12 10:59:16;;;;;;;18.15;14.52;;;18.50;66.20;;;;;;5051164;28;20110;-53
2021/11/12 11:01:47;;;;;;;28.85;16.35;;;18.10;63.50;;;;;;5048621;28;20538;-45
2021/11/12 11:04:22;;;;;;;20.77;16.33;;;18.70;68.70;;;;;;5032405;28;20086;-47
2021/11/12 11:06:51;;;;;;;18.23;15.73;;;18.50;67.40;;;;;;5048863;28;20051;-48
2021/11/12 11:09:36;;;;;;;16.77;15.05;;;18.60;66.50;;;;;;5048069;28;20049;-47
2021/11/12 11:12:03;;;;;;;18.38;15.27;;;19.20;66.10;;;;;;4998769;28;20056;-45
2021/11/12 11:14:31;;;;;;;19.48;17.35;;;19.50;65.90;;;;;;5048616;28;20079;-47
2021/11/12 11:17:25;;;;;;;19.90;17.77;;;19.00;63.90;;;;;;5030854;28;20037;-51
2021/11/12 11:19:53;;;;;;;21.80;18.88;;;18.70;61.10;;;;;;5048394;28;20041;-48
2021/11/12 11:22:19;;;;;;;20.92;18.73;;;18.70;64.20;;;;;;5048497;28;20045;-52
2021/11/12 11:24:49;;;;;;;21.63;19.42;;;18.70;62.50;;;;;;5031339;28;20085;-52
2021/11/12 11:27:15;;;;;;;23.02;20.27;;;18.60;63.60;;;;;;5031235;28;20095;-52
2021/11/12 11:29:41;;;;;;;26.45;20.67;;;18.50;63.70;;;;;;5047825;28;20040;-52
2021/11/12 11:32:08;;;;;;;24.17;21.45;;;18.70;62.50;;;;;;5048323;28;20081;-53
2021/11/12 11:34:35;;;;;;;24.48;21.05;;;18.70;62.20;;;;;;5036585;28;20087;-50
2021/11/12 11:37:03;;;;;;;25.05;21.67;;;18.50;61.30;;;;;;5028119;28;20061;-48
2021/11/12 11:39:30;;;;;;;26.85;21.30;;;18.60;61.40;;;;;;5030691;28;20497;-50
2021/11/12 11:41:59;;;;;;;24.55;21.40;;;17.80;59.90;;;;;;5030230;28;20041;-51
2021/11/12 11:44:26;;;;;;;27.30;24.33;;;17.50;62.50;;;;;;5039642;28;20110;-52
2021/11/12 11:46:53;;;;;;;27.65;24.25;;;17.00;64.00;;;;;;5050091;28;20106;-61
2021/11/12 11:49:23;;;;;;;24.90;22.30;;;16.10;66.00;;;;;;5050571;28;20066;-61
2021/11/12 11:51:55;;;;;;;26.98;24.15;;;15.80;67.90;;;;;;5043737;28;20087;-61
2021/11/12 11:54:33;;;;;;;27.15;24.23;;;15.80;69.90;;;;;;5048917;28;20472;-61
2021/11/12 11:57:10;;;;;;;32.15;25.58;;;15.70;75.50;;;;;;5049563;28;20049;-61
2021/11/12 11:59:36;;;;;;;30.08;25.65;;;15.60;74.40;;;;;;5049692;28;20045;-58
2021/11/12 12:02:04;;;;;;;30.48;26.83;;;15.20;78.00;;;;;;5048091;28;20102;-61
2021/11/12 12:04:57;;;;;;;31.92;25.90;;;15.20;80.80;;;;;;5049785;28;20051;-62
2021/11/12 12:07:27;;;;;;;32.42;26.08;;;14.70;85.00;;;;;;5027281;28;20045;-62
2021/11/12 12:10:01;;;;;;;31.10;26.58;;;14.40;90.00;;;;;;5010361;28;20338;-61
2021/11/12 12:12:36;;;;;;;32.35;28.70;;;14.00;92.80;;;;;;5027197;28;20159;-61
2021/11/12 12:15:04;;;;;;;35.58;29.50;;;13.90;95.20;;;;;;5027048;28;20085;-62
2021/11/12 12:17:48;;;;;;;35.55;29.92;;;13.40;99.50;;;;;;5027295;28;20049;-62
2021/11/12 12:20:40;;;;;;;35.95;31.45;;;13.20;99.90;;;;;;5027175;28;20049;-62
2021/11/12 13:25:38;;;;;;;59.25;43.03;;;9.90;99.90;;;;;;5050484;28;20053;-48
2021/11/12 13:28:24;;;;;;;64.00;45.67;;;9.70;99.90;;;;;;5051565;28;20142;-52
2021/11/12 13:31:00;;;;;;;62.60;46.47;;;9.50;99.90;;;;;;5052970;28;20076;-47
2021/11/12 13:33:30;;;;;;;61.80;46.28;;;9.50;99.90;;;;;;5052679;28;20112;-59
2021/11/12 13:35:58;;;;;;;62.85;46.78;;;9.30;99.90;;;;;;5052718;28;20037;-59
2021/11/12 13:38:35;;;;;;;59.25;44.72;;;9.20;99.90;;;;;;5034546;28;20095;-59
2021/11/12 13:41:04;;;;;;;59.47;46.45;;;9.30;99.90;;;;;;5050081;28;20060;-58
2021/11/12 13:43:33;;;;;;;60.42;47.00;;;9.20;99.90;;;;;;5050839;28;20072;-60
2021/11/12 13:46:00;;;;;;;61.28;45.65;;;9.20;99.90;;;;;;5051728;28;20064;-59
2021/11/12 13:48:26;;;;;;;61.97;46.80;;;9.10;99.90;;;;;;5052070;28;20040;-59
2021/11/12 13:50:57;;;;;;;60.38;43.17;;;9.10;99.90;;;;;;5052094;28;20049;-48
2021/11/12 13:53:32;;;;;;;59.25;43.17;;;9.00;99.90;;;;;;5051056;28;20051;-50
2021/11/12 13:56:01;;;;;;;62.88;48.40;;;8.90;99.90;;;;;;5051916;28;20053;-48
2021/11/12 13:58:28;;;;;;;63.90;46.28;;;8.90;99.90;;;;;;5052108;28;20052;-47
2021/11/12 14:00:56;;;;;;;65.28;47.20;;;8.90;99.90;;;;;;5050652;28;20514;-49
2021/11/12 14:03:33;;;;;;;64.18;47.47;;;8.80;99.90;;;;;;5048755;28;20052;-48
2021/11/12 14:06:09;;;;;;;59.03;45.25;;;8.70;99.90;;;;;;5029719;28;20037;-51
2021/11/12 14:08:37;;;;;;;65.13;49.22;;;8.70;99.90;;;;;;5049260;28;20102;-47
2021/11/12 14:11:20;;;;;;;67.82;48.20;;;8.60;99.90;;;;;;5050665;28;20198;-49
2021/11/12 14:13:47;;;;;;;66.65;47.47;;;8.60;99.90;;;;;;5046641;28;20037;-47
2021/11/12 14:16:26;;;;;;;61.33;48.03;;;8.60;99.90;;;;;;5064962;28;20041;-51
2021/11/12 14:19:18;;;;;;;65.88;46.72;;;8.50;99.90;;;;;;5049339;28;20068;-48
2021/11/12 14:24:48;;;;;;;64.05;48.88;;;8.40;99.90;;;;;;5049059;28;20114;-48
2021/11/12 14:33:25;;;;;;;69.75;48.83;;;8.30;99.90;;;;;;5050179;28;20076;-48
2021/11/12 14:35:53;;;;;;;62.00;48.22;;;8.30;99.90;;;;;;5049168;28;20126;-49
2021/11/12 14:51:55;;;;;;;73.13;51.40;;;8.00;99.90;;;;;;5045886;28;20173;-60
2021/11/12 14:54:26;;;;;;;64.45;48.05;;;8.00;99.90;;;;;;5016024;28;20445;-60
2021/11/12 14:56:52;;;;;;;71.50;52.67;;;7.90;99.90;;;;;;5055104;28;20040;-59
2021/11/12 14:59:19;;;;;;;66.20;47.97;;;7.90;99.90;;;;;;5038129;28;20053;-60
2021/11/12 15:01:45;;;;;;;76.00;51.25;;;7.90;99.90;;;;;;5058100;28;20067;-60
2021/11/12 15:04:11;;;;;;;72.55;49.10;;;7.90;99.90;;;;;;5050156;28;20492;-59
2021/11/12 15:06:38;;;;;;;71.38;50.33;;;7.80;99.90;;;;;;5050041;28;20056;-59
2021/11/12 15:11:51;;;;;;;68.65;49.60;;;7.80;99.90;;;;;;5048190;28;20554;-59
2021/11/12 15:14:24;;;;;;;74.18;50.72;;;7.70;99.90;;;;;;5049025;28;20041;-49
2021/11/12 15:16:50;;;;;;;68.30;47.58;;;7.70;99.90;;;;;;5049459;28;20500;-48
2021/11/12 15:19:18;;;;;;;70.32;51.05;;;7.70;99.90;;;;;;5049628;28;20135;-48
2021/11/12 15:24:42;;;;;;;70.95;50.38;;;7.60;99.90;;;;;;5048924;28;20045;-51
2021/11/12 15:29:51;;;;;;;71.75;50.22;;;7.60;99.90;;;;;;5048283;28;20091;-46
2021/11/12 15:32:34;;;;;;;69.43;50.65;;;7.60;99.90;;;;;;5048678;28;20440;-46
2021/11/12 15:35:23;;;;;;;70.25;51.40;;;7.50;99.90;;;;;;5046014;28;20238;-47
2021/11/12 15:38:04;;;;;;;66.47;48.85;;;7.50;99.90;;;;;;5046775;28;20074;-49
2021/11/12 15:40:36;;;;;;;72.75;52.10;;;7.50;99.90;;;;;;5041341;28;20123;-46
2021/11/12 15:48:22;;;;;;;69.75;50.70;;;7.50;99.90;;;;;;5047353;28;20037;-49
2021/11/12 15:51:01;;;;;;;70.28;50.72;;;7.50;99.90;;;;;;5045697;28;20043;-50
2021/11/12 15:59:25;;;;;;;74.60;50.87;;;7.40;99.90;;;;;;5015025;28;20092;-47
2021/11/12 16:07:25;;;;;;;72.25;50.42;;;7.30;99.90;;;;;;5008001;28;20484;-47
2021/11/12 16:12:48;;;;;;;72.80;50.10;;;7.30;99.90;;;;;;5015153;28;20084;-48
2021/11/12 16:15:25;;;;;;;72.05;50.00;;;7.30;99.90;;;;;;5014500;28;20137;-47
2021/11/12 16:25:20;;;;;;;66.57;46.10;;;7.30;99.90;;;;;;5010692;28;20096;-50
2021/11/12 16:27:49;;;;;;;64.45;46.03;;;7.40;99.90;;;;;;5037929;28;20048;-48
2021/11/12 16:30:19;;;;;;;64.57;48.17;;;7.30;99.90;;;;;;5046907;28;20049;-47
2021/11/12 16:32:51;;;;;;;64.43;44.28;;;7.30;99.90;;;;;;5044836;28;20386;-47
2021/11/12 16:35:21;;;;;;;58.97;44.47;;;7.30;99.90;;;;;;5043264;28;20415;-47
2021/11/12 16:37:50;;;;;;;58.80;42.88;;;7.30;99.90;;;;;;5047406;28;20053;-46
2021/11/12 16:45:40;;;;;;;54.92;41.90;;;7.40;99.90;;;;;;5046581;28;20040;-47
2021/11/12 16:48:23;;;;;;;55.17;40.28;;;7.40;99.90;;;;;;5045307;28;20053;-45
2021/11/12 16:59:17;;;;;;;49.27;36.30;;;7.30;99.90;;;;;;4990996;28;20050;-49
2021/11/12 17:09:20;;;;;;;45.03;36.88;;;7.30;99.90;;;;;;4999477;28;20045;-58
2021/11/12 17:11:55;;;;;;;48.75;35.28;;;7.30;99.90;;;;;;4999608;28;20050;-59
2021/11/12 17:23:50;;;;;;;44.70;35.35;;;7.40;99.90;;;;;;5000226;28;20560;-59
2021/11/12 17:47:37;;;;;;;39.13;29.92;;;7.40;99.90;;;;;;5007713;28;20046;-59
2021/11/12 21:48:23;;;;;;;39.75;28.52;;;7.90;99.90;;;;;;5051013;28;20037;-58
2021/11/12 21:50:52;;;;;;;37.53;29.73;;;7.90;99.90;;;;;;5051089;28;20139;-48
2021/11/12 21:53:22;;;;;;;33.40;27.55;;;7.90;99.90;;;;;;5051164;28;20094;-50
2021/11/12 21:55:49;;;;;;;32.83;27.48;;;7.90;99.90;;;;;;5050908;28;20067;-47
2021/11/12 21:58:16;;;;;;;34.40;26.73;;;7.90;99.90;;;;;;5049819;28;20053;-45
2021/11/12 22:00:43;;;;;;;32.75;26.60;;;7.90;99.90;;;;;;5049568;28;20044;-47
2021/11/12 22:03:09;;;;;;;36.30;27.75;;;8.00;99.90;;;;;;5050090;28;20129;-45
2021/11/12 22:05:35;;;;;;;33.03;27.55;;;8.00;99.90;;;;;;5049312;28;20048;-51
2021/11/12 22:08:02;;;;;;;31.23;26.67;;;8.10;99.90;;;;;;5049430;28;20033;-46
2021/11/12 22:10:29;;;;;;;36.08;25.98;;;8.10;99.90;;;;;;5049684;28;20049;-50
2021/11/12 22:13:01;;;;;;;30.35;25.50;;;8.10;99.90;;;;;;5050699;28;20048;-50
2021/11/12 22:15:27;;;;;;;35.33;27.80;;;8.10;99.90;;;;;;5048756;28;20091;-49
2021/11/12 22:17:53;;;;;;;31.95;25.38;;;8.20;99.90;;;;;;5045130;28;20064;-46
2021/11/12 22:20:19;;;;;;;32.88;26.48;;;8.20;99.90;;;;;;5051394;28;20143;-48
2021/11/12 22:22:46;;;;;;;31.42;25.15;;;8.20;99.90;;;;;;5052018;28;20495;-48
2021/11/12 22:25:16;;;;;;;35.72;26.67;;;8.20;99.90;;;;;;5049989;28;20049;-58
2021/11/12 22:27:42;;;;;;;29.17;24.88;;;8.20;99.90;;;;;;5050331;28;20103;-58
2021/11/12 22:30:11;;;;;;;33.05;26.50;;;8.20;99.90;;;;;;5051428;28;20160;-58
2021/11/12 22:32:37;;;;;;;31.58;24.45;;;8.20;99.90;;;;;;5051823;28;20500;-58
2021/11/12 22:35:04;;;;;;;31.15;25.10;;;8.20;99.90;;;;;;5051882;28;20142;-60
2021/11/12 22:37:30;;;;;;;32.55;24.83;;;8.20;99.90;;;;;;5033492;28;20045;-57
2021/11/12 22:39:57;;;;;;;29.77;23.58;;;8.20;99.90;;;;;;5049986;28;20056;-58
2021/11/12 22:42:23;;;;;;;33.13;24.98;;;8.30;99.90;;;;;;5049911;28;20110;-59
2021/11/12 22:44:49;;;;;;;31.30;24.08;;;8.30;99.90;;;;;;5031047;28;20060;-59
2021/11/12 22:47:15;;;;;;;28.27;20.63;;;8.30;99.90;;;;;;5050107;28;20084;-59
2021/11/12 22:49:41;;;;;;;28.88;24.23;;;8.30;99.90;;;;;;5033056;28;20041;-59
2021/11/12 22:52:08;;;;;;;30.42;24.00;;;8.40;99.90;;;;;;5048898;28;20079;-59
2021/11/12 22:54:37;;;;;;;28.67;23.60;;;8.40;99.90;;;;;;5013506;28;20522;-59
2021/11/12 22:57:04;;;;;;;30.42;24.30;;;8.40;99.90;;;;;;5031944;28;20107;-58
2021/11/12 22:59:30;;;;;;;31.38;24.60;;;8.40;99.90;;;;;;5049938;28;20051;-49